Terminal Aerodrome Forecast
Issued by NWS North Platte, NE

Home | Current Version | Previous Version | Graphics & Text | Print | Product List | Glossary On
Versions: 1 2 3 4 5 6 7 8 9 10 11 12 13 14 15 16 17 18 19 20 21 22 23 24 25
000
FTUS43 KLBF 170500
TAFVTN
TAF
KVTN 170520Z 1706/1806 16005KT P6SM OVC012
     FM170800 15006KT P6SM OVC008
     FM171500 15010KT P6SM OVC012
     FM180400 16008KT P6SM OVC008=

USA.gov is the U.S. government's official web portal to all federal, state and local government web resources and services.